sensor_id;sensor_type;location;lat;lon;timestamp;temperature;humidity
15355;DHT22;7777;52.254;9.618;2023-04-16T00:02:20;10.30;99.90
15355;DHT22;7777;52.254;9.618;2023-04-16T00:04:46;10.30;99.90
15355;DHT22;7777;52.254;9.618;2023-04-16T00:07:11;10.30;99.90
15355;DHT22;7777;52.254;9.618;2023-04-16T00:09:37;10.30;99.90
15355;DHT22;7777;52.254;9.618;2023-04-16T00:12:03;10.30;99.90
15355;DHT22;7777;52.254;9.618;2023-04-16T00:14:29;10.30;99.90
15355;DHT22;7777;52.254;9.618;2023-04-16T00:16:55;10.30;99.90
15355;DHT22;7777;52.254;9.618;2023-04-16T00:19:20;10.30;99.90
15355;DHT22;7777;52.254;9.618;2023-04-16T00:21:46;10.30;99.90
15355;DHT22;7777;52.254;9.618;2023-04-16T00:24:13;10.30;99.90
15355;DHT22;7777;52.254;9.618;2023-04-16T00:26:38;10.30;99.90
15355;DHT22;7777;52.254;9.618;2023-04-16T00:29:05;10.20;99.90
15355;DHT22;7777;52.254;9.618;2023-04-16T00:31:32;10.20;99.90
15355;DHT22;7777;52.254;9.618;2023-04-16T00:33:58;10.20;99.90
15355;DHT22;7777;52.254;9.618;2023-04-16T00:36:25;10.20;99.90
15355;DHT22;7777;52.254;9.618;2023-04-16T00:38:52;10.20;99.90
15355;DHT22;7777;52.254;9.618;2023-04-16T00:41:19;10.20;99.90
15355;DHT22;7777;52.254;9.618;2023-04-16T00:43:44;10.20;99.90
15355;DHT22;7777;52.254;9.618;2023-04-16T00:46:11;10.20;99.90
15355;DHT22;7777;52.254;9.618;2023-04-16T00:48:37;10.20;99.90
15355;DHT22;7777;52.254;9.618;2023-04-16T00:51:05;10.20;99.90
15355;DHT22;7777;52.254;9.618;2023-04-16T00:53:31;10.10;99.90
15355;DHT22;7777;52.254;9.618;2023-04-16T00:55:58;10.20;99.90
15355;DHT22;7777;52.254;9.618;2023-04-16T00:58:24;10.20;99.90
15355;DHT22;7777;52.254;9.618;2023-04-16T01:00:50;10.20;99.90
15355;DHT22;7777;52.254;9.618;2023-04-16T01:03:16;10.20;99.90
15355;DHT22;7777;52.254;9.618;2023-04-16T01:05:42;10.10;99.90
15355;DHT22;7777;52.254;9.618;2023-04-16T01:08:19;10.20;99.90
15355;DHT22;7777;52.254;9.618;2023-04-16T01:10:45;10.20;99.90
15355;DHT22;7777;52.254;9.618;2023-04-16T01:13:11;10.10;99.90
15355;DHT22;7777;52.254;9.618;2023-04-16T01:15:37;10.20;99.90
15355;DHT22;7777;52.254;9.618;2023-04-16T01:18:13;10.20;99.90
15355;DHT22;7777;52.254;9.618;2023-04-16T01:20:40;10.10;99.90
15355;DHT22;7777;52.254;9.618;2023-04-16T01:23:05;10.20;99.90
15355;DHT22;7777;52.254;9.618;2023-04-16T01:25:31;10.20;99.90
15355;DHT22;7777;52.254;9.618;2023-04-16T01:27:57;10.10;99.90
15355;DHT22;7777;52.254;9.618;2023-04-16T01:30:23;10.10;99.90
15355;DHT22;7777;52.254;9.618;2023-04-16T01:32:49;10.20;99.90
15355;DHT22;7777;52.254;9.618;2023-04-16T01:35:15;10.10;99.90
15355;DHT22;7777;52.254;9.618;2023-04-16T01:37:44;10.20;99.90
15355;DHT22;7777;52.254;9.618;2023-04-16T01:40:10;10.20;99.90
15355;DHT22;7777;52.254;9.618;2023-04-16T01:42:36;10.10;99.90
15355;DHT22;7777;52.254;9.618;2023-04-16T01:45:03;10.10;99.90
15355;DHT22;7777;52.254;9.618;2023-04-16T01:47:29;10.10;99.90
15355;DHT22;7777;52.254;9.618;2023-04-16T01:49:55;10.10;99.90
15355;DHT22;7777;52.254;9.618;2023-04-16T01:52:21;10.10;99.90
15355;DHT22;7777;52.254;9.618;2023-04-16T01:54:47;10.00;99.90
15355;DHT22;7777;52.254;9.618;2023-04-16T01:57:12;10.00;99.90
15355;DHT22;7777;52.254;9.618;2023-04-16T01:59:38;10.00;99.90
15355;DHT22;7777;52.254;9.618;2023-04-16T02:02:11;10.00;99.90
15355;DHT22;7777;52.254;9.618;2023-04-16T02:04:38;10.00;99.90
15355;DHT22;7777;52.254;9.618;2023-04-16T02:07:06;9.90;99.90
15355;DHT22;7777;52.254;9.618;2023-04-16T02:09:39;10.00;99.90
15355;DHT22;7777;52.254;9.618;2023-04-16T02:12:05;9.90;99.90
15355;DHT22;7777;52.254;9.618;2023-04-16T02:14:32;9.80;99.90
15355;DHT22;7777;52.254;9.618;2023-04-16T02:16:59;9.90;99.90
15355;DHT22;7777;52.254;9.618;2023-04-16T02:19:25;9.80;99.90
15355;DHT22;7777;52.254;9.618;2023-04-16T02:21:52;9.80;99.90
15355;DHT22;7777;52.254;9.618;2023-04-16T02:24:18;9.80;99.90
15355;DHT22;7777;52.254;9.618;2023-04-16T02:26:44;9.80;99.90
15355;DHT22;7777;52.254;9.618;2023-04-16T02:29:10;9.80;99.90
15355;DHT22;7777;52.254;9.618;2023-04-16T02:31:36;9.70;99.90
15355;DHT22;7777;52.254;9.618;2023-04-16T02:34:02;9.80;99.90
15355;DHT22;7777;52.254;9.618;2023-04-16T02:36:28;9.80;99.90
15355;DHT22;7777;52.254;9.618;2023-04-16T02:38:54;9.70;99.90
15355;DHT22;7777;52.254;9.618;2023-04-16T02:41:19;9.70;99.90
15355;DHT22;7777;52.254;9.618;2023-04-16T02:43:45;9.70;99.90
15355;DHT22;7777;52.254;9.618;2023-04-16T02:46:11;9.70;99.90
15355;DHT22;7777;52.254;9.618;2023-04-16T02:48:37;9.70;99.90
15355;DHT22;7777;52.254;9.618;2023-04-16T02:51:03;9.70;99.90
15355;DHT22;7777;52.254;9.618;2023-04-16T02:53:29;9.60;99.90
15355;DHT22;7777;52.254;9.618;2023-04-16T02:55:55;9.70;99.90
15355;DHT22;7777;52.254;9.618;2023-04-16T02:58:22;9.60;99.90
15355;DHT22;7777;52.254;9.618;2023-04-16T03:00:48;9.60;99.90
15355;DHT22;7777;52.254;9.618;2023-04-16T03:03:15;9.60;99.90
15355;DHT22;7777;52.254;9.618;2023-04-16T03:05:41;9.60;99.90
15355;DHT22;7777;52.254;9.618;2023-04-16T03:08:07;9.60;99.90
15355;DHT22;7777;52.254;9.618;2023-04-16T03:10:33;9.60;99.90
15355;DHT22;7777;52.254;9.618;2023-04-16T03:12:59;9.50;99.90
15355;DHT22;7777;52.254;9.618;2023-04-16T03:15:25;9.50;99.90
15355;DHT22;7777;52.254;9.618;2023-04-16T03:17:51;9.50;99.90
15355;DHT22;7777;52.254;9.618;2023-04-16T03:20:17;9.50;99.90
15355;DHT22;7777;52.254;9.618;2023-04-16T03:22:44;9.50;99.90
15355;DHT22;7777;52.254;9.618;2023-04-16T03:25:10;9.50;99.90
15355;DHT22;7777;52.254;9.618;2023-04-16T03:27:36;9.40;99.90
15355;DHT22;7777;52.254;9.618;2023-04-16T03:30:05;9.40;99.90
15355;DHT22;7777;52.254;9.618;2023-04-16T03:32:31;9.40;99.90
15355;DHT22;7777;52.254;9.618;2023-04-16T03:34:57;9.40;99.90
15355;DHT22;7777;52.254;9.618;2023-04-16T03:37:23;9.40;99.90
15355;DHT22;7777;52.254;9.618;2023-04-16T03:39:49;9.30;99.90
15355;DHT22;7777;52.254;9.618;2023-04-16T03:42:14;9.30;99.90
15355;DHT22;7777;52.254;9.618;2023-04-16T03:44:40;9.30;99.90
15355;DHT22;7777;52.254;9.618;2023-04-16T03:47:06;9.30;99.90
15355;DHT22;7777;52.254;9.618;2023-04-16T03:49:32;9.30;99.90
15355;DHT22;7777;52.254;9.618;2023-04-16T03:51:57;9.20;99.90
15355;DHT22;7777;52.254;9.618;2023-04-16T03:54:23;9.30;99.90
15355;DHT22;7777;52.254;9.618;2023-04-16T03:56:48;9.20;99.90
15355;DHT22;7777;52.254;9.618;2023-04-16T03:59:14;9.20;99.90
15355;DHT22;7777;52.254;9.618;2023-04-16T04:01:40;9.20;99.90
15355;DHT22;7777;52.254;9.618;2023-04-16T04:04:06;9.20;99.90
15355;DHT22;7777;52.254;9.618;2023-04-16T04:06:33;9.20;99.90
15355;DHT22;7777;52.254;9.618;2023-04-16T04:08:59;9.10;99.90
15355;DHT22;7777;52.254;9.618;2023-04-16T04:11:25;9.20;99.90
15355;DHT22;7777;52.254;9.618;2023-04-16T04:13:51;9.20;99.90
15355;DHT22;7777;52.254;9.618;2023-04-16T04:16:16;9.20;99.90
15355;DHT22;7777;52.254;9.618;2023-04-16T04:18:42;9.10;99.90
15355;DHT22;7777;52.254;9.618;2023-04-16T04:21:08;9.10;99.90
15355;DHT22;7777;52.254;9.618;2023-04-16T04:23:35;9.10;99.90
15355;DHT22;7777;52.254;9.618;2023-04-16T04:26:00;9.10;99.90
15355;DHT22;7777;52.254;9.618;2023-04-16T04:28:28;9.10;99.90
15355;DHT22;7777;52.254;9.618;2023-04-16T04:30:56;9.10;99.90
15355;DHT22;7777;52.254;9.618;2023-04-16T04:33:22;9.10;99.90
15355;DHT22;7777;52.254;9.618;2023-04-16T04:35:48;9.00;99.90
15355;DHT22;7777;52.254;9.618;2023-04-16T04:38:13;9.00;99.90
15355;DHT22;7777;52.254;9.618;2023-04-16T04:40:44;9.00;99.90
15355;DHT22;7777;52.254;9.618;2023-04-16T04:43:12;9.00;99.90
15355;DHT22;7777;52.254;9.618;2023-04-16T04:45:39;9.00;99.90
15355;DHT22;7777;52.254;9.618;2023-04-16T04:48:05;9.00;99.90
15355;DHT22;7777;52.254;9.618;2023-04-16T04:50:31;9.00;99.90
15355;DHT22;7777;52.254;9.618;2023-04-16T04:52:56;9.00;99.90
15355;DHT22;7777;52.254;9.618;2023-04-16T04:55:22;9.00;99.90
15355;DHT22;7777;52.254;9.618;2023-04-16T04:57:48;9.00;99.90
15355;DHT22;7777;52.254;9.618;2023-04-16T05:00:14;9.00;99.90
15355;DHT22;7777;52.254;9.618;2023-04-16T05:02:41;9.00;99.90
15355;DHT22;7777;52.254;9.618;2023-04-16T05:05:07;8.90;99.90
15355;DHT22;7777;52.254;9.618;2023-04-16T05:07:33;8.90;99.90
15355;DHT22;7777;52.254;9.618;2023-04-16T05:09:58;8.90;99.90
15355;DHT22;7777;52.254;9.618;2023-04-16T05:12:24;8.90;99.90
15355;DHT22;7777;52.254;9.618;2023-04-16T05:14:50;8.90;99.90
15355;DHT22;7777;52.254;9.618;2023-04-16T05:17:16;9.00;99.90
15355;DHT22;7777;52.254;9.618;2023-04-16T05:19:41;8.90;99.90
15355;DHT22;7777;52.254;9.618;2023-04-16T05:22:07;8.90;99.90
15355;DHT22;7777;52.254;9.618;2023-04-16T05:24:33;8.90;99.90
15355;DHT22;7777;52.254;9.618;2023-04-16T05:26:58;8.90;99.90
15355;DHT22;7777;52.254;9.618;2023-04-16T05:29:24;8.90;99.90
15355;DHT22;7777;52.254;9.618;2023-04-16T05:31:50;8.90;99.90
15355;DHT22;7777;52.254;9.618;2023-04-16T05:34:16;8.90;99.90
15355;DHT22;7777;52.254;9.618;2023-04-16T05:36:41;8.90;99.90
15355;DHT22;7777;52.254;9.618;2023-04-16T05:39:09;8.80;99.90
15355;DHT22;7777;52.254;9.618;2023-04-16T05:41:35;8.80;99.90
15355;DHT22;7777;52.254;9.618;2023-04-16T05:44:01;8.80;99.90
15355;DHT22;7777;52.254;9.618;2023-04-16T05:46:27;8.80;99.90
15355;DHT22;7777;52.254;9.618;2023-04-16T05:48:52;8.90;99.90
15355;DHT22;7777;52.254;9.618;2023-04-16T05:51:18;8.90;99.90
15355;DHT22;7777;52.254;9.618;2023-04-16T05:53:51;8.90;99.90
15355;DHT22;7777;52.254;9.618;2023-04-16T05:56:17;8.90;99.90
15355;DHT22;7777;52.254;9.618;2023-04-16T05:58:42;8.90;99.90
15355;DHT22;7777;52.254;9.618;2023-04-16T06:01:10;8.90;99.90
15355;DHT22;7777;52.254;9.618;2023-04-16T06:03:35;8.90;99.90
15355;DHT22;7777;52.254;9.618;2023-04-16T06:06:01;8.90;99.90
15355;DHT22;7777;52.254;9.618;2023-04-16T06:08:27;8.90;99.90
15355;DHT22;7777;52.254;9.618;2023-04-16T06:10:52;8.90;99.90
15355;DHT22;7777;52.254;9.618;2023-04-16T06:13:18;8.90;99.90
15355;DHT22;7777;52.254;9.618;2023-04-16T06:15:44;8.90;99.90
15355;DHT22;7777;52.254;9.618;2023-04-16T06:18:09;8.90;99.90
15355;DHT22;7777;52.254;9.618;2023-04-16T06:20:35;8.90;99.90
15355;DHT22;7777;52.254;9.618;2023-04-16T06:23:01;8.90;99.90
15355;DHT22;7777;52.254;9.618;2023-04-16T06:25:26;8.90;99.90
15355;DHT22;7777;52.254;9.618;2023-04-16T06:27:52;8.90;99.90
15355;DHT22;7777;52.254;9.618;2023-04-16T06:30:18;8.90;99.90
15355;DHT22;7777;52.254;9.618;2023-04-16T06:32:44;9.00;99.90
15355;DHT22;7777;52.254;9.618;2023-04-16T06:35:11;9.00;99.90
15355;DHT22;7777;52.254;9.618;2023-04-16T06:37:37;8.90;99.90
15355;DHT22;7777;52.254;9.618;2023-04-16T06:40:03;9.00;99.90
15355;DHT22;7777;52.254;9.618;2023-04-16T06:42:29;9.00;99.90
15355;DHT22;7777;52.254;9.618;2023-04-16T06:44:55;9.00;99.90
15355;DHT22;7777;52.254;9.618;2023-04-16T06:47:20;9.00;99.90
15355;DHT22;7777;52.254;9.618;2023-04-16T06:49:46;9.00;99.90
15355;DHT22;7777;52.254;9.618;2023-04-16T06:52:12;9.00;99.90
15355;DHT22;7777;52.254;9.618;2023-04-16T06:54:38;9.00;99.90
15355;DHT22;7777;52.254;9.618;2023-04-16T06:57:03;9.00;99.90
15355;DHT22;7777;52.254;9.618;2023-04-16T06:59:29;9.00;99.90
15355;DHT22;7777;52.254;9.618;2023-04-16T07:01:55;9.00;99.90
15355;DHT22;7777;52.254;9.618;2023-04-16T07:04:22;9.00;99.90
15355;DHT22;7777;52.254;9.618;2023-04-16T07:06:48;9.00;99.90
15355;DHT22;7777;52.254;9.618;2023-04-16T07:09:13;9.10;99.90
15355;DHT22;7777;52.254;9.618;2023-04-16T07:11:39;9.10;99.90
15355;DHT22;7777;52.254;9.618;2023-04-16T07:14:06;9.10;99.90
15355;DHT22;7777;52.254;9.618;2023-04-16T07:16:31;9.10;99.90
15355;DHT22;7777;52.254;9.618;2023-04-16T07:18:57;9.10;99.90
15355;DHT22;7777;52.254;9.618;2023-04-16T07:21:23;9.10;99.90
15355;DHT22;7777;52.254;9.618;2023-04-16T07:23:48;9.10;99.90
15355;DHT22;7777;52.254;9.618;2023-04-16T07:26:14;9.10;99.90
15355;DHT22;7777;52.254;9.618;2023-04-16T07:28:40;9.10;99.90
15355;DHT22;7777;52.254;9.618;2023-04-16T07:31:05;9.20;99.90
15355;DHT22;7777;52.254;9.618;2023-04-16T07:33:31;9.20;99.90
15355;DHT22;7777;52.254;9.618;2023-04-16T07:35:57;9.20;99.90
15355;DHT22;7777;52.254;9.618;2023-04-16T07:38:23;9.20;99.90
15355;DHT22;7777;52.254;9.618;2023-04-16T07:40:48;9.20;99.90
15355;DHT22;7777;52.254;9.618;2023-04-16T07:43:14;9.20;99.90
15355;DHT22;7777;52.254;9.618;2023-04-16T07:45:40;9.20;99.90
15355;DHT22;7777;52.254;9.618;2023-04-16T07:48:06;9.30;99.90
15355;DHT22;7777;52.254;9.618;2023-04-16T07:50:35;9.30;99.90
15355;DHT22;7777;52.254;9.618;2023-04-16T07:53:01;9.30;99.90
15355;DHT22;7777;52.254;9.618;2023-04-16T07:55:26;9.20;99.90
15355;DHT22;7777;52.254;9.618;2023-04-16T07:57:52;9.30;99.90
15355;DHT22;7777;52.254;9.618;2023-04-16T08:00:18;9.30;99.90
15355;DHT22;7777;52.254;9.618;2023-04-16T08:02:43;9.30;99.90
15355;DHT22;7777;52.254;9.618;2023-04-16T08:05:15;9.30;99.90
15355;DHT22;7777;52.254;9.618;2023-04-16T08:07:43;9.30;99.90
15355;DHT22;7777;52.254;9.618;2023-04-16T08:10:09;9.40;99.90
15355;DHT22;7777;52.254;9.618;2023-04-16T08:12:35;9.40;99.90
15355;DHT22;7777;52.254;9.618;2023-04-16T08:15:01;9.40;99.90
15355;DHT22;7777;52.254;9.618;2023-04-16T08:17:26;9.40;99.90
15355;DHT22;7777;52.254;9.618;2023-04-16T08:19:53;9.50;99.90
15355;DHT22;7777;52.254;9.618;2023-04-16T08:22:19;9.50;99.90
15355;DHT22;7777;52.254;9.618;2023-04-16T08:24:45;9.50;99.90
15355;DHT22;7777;52.254;9.618;2023-04-16T08:27:10;9.50;99.90
15355;DHT22;7777;52.254;9.618;2023-04-16T08:29:36;9.50;99.90
15355;DHT22;7777;52.254;9.618;2023-04-16T08:32:02;9.60;99.90
15355;DHT22;7777;52.254;9.618;2023-04-16T08:34:28;9.60;99.90
15355;DHT22;7777;52.254;9.618;2023-04-16T08:36:53;9.60;99.90
15355;DHT22;7777;52.254;9.618;2023-04-16T08:39:20;9.60;99.90
15355;DHT22;7777;52.254;9.618;2023-04-16T08:41:46;9.60;99.90
15355;DHT22;7777;52.254;9.618;2023-04-16T08:44:25;9.70;99.90
15355;DHT22;7777;52.254;9.618;2023-04-16T08:46:55;9.70;99.90
15355;DHT22;7777;52.254;9.618;2023-04-16T08:49:24;9.70;99.90
15355;DHT22;7777;52.254;9.618;2023-04-16T08:51:51;9.80;99.90
15355;DHT22;7777;52.254;9.618;2023-04-16T08:54:56;9.70;99.90
15355;DHT22;7777;52.254;9.618;2023-04-16T08:57:38;9.80;99.90
15355;DHT22;7777;52.254;9.618;2023-04-16T09:00:10;9.80;99.90
15355;DHT22;7777;52.254;9.618;2023-04-16T09:02:37;9.80;99.90
15355;DHT22;7777;52.254;9.618;2023-04-16T09:05:04;9.80;99.90
15355;DHT22;7777;52.254;9.618;2023-04-16T09:07:32;9.80;99.90
15355;DHT22;7777;52.254;9.618;2023-04-16T09:09:59;9.80;99.90
15355;DHT22;7777;52.254;9.618;2023-04-16T09:12:26;9.90;99.90
15355;DHT22;7777;52.254;9.618;2023-04-16T09:14:52;9.90;99.90
15355;DHT22;7777;52.254;9.618;2023-04-16T09:17:18;9.90;99.90
15355;DHT22;7777;52.254;9.618;2023-04-16T09:19:44;9.90;99.90
15355;DHT22;7777;52.254;9.618;2023-04-16T09:22:11;9.90;99.90
15355;DHT22;7777;52.254;9.618;2023-04-16T09:24:36;10.00;99.90
15355;DHT22;7777;52.254;9.618;2023-04-16T09:27:03;10.00;99.90
15355;DHT22;7777;52.254;9.618;2023-04-16T09:29:37;10.00;99.90
15355;DHT22;7777;52.254;9.618;2023-04-16T09:32:05;10.10;99.90
15355;DHT22;7777;52.254;9.618;2023-04-16T09:34:32;10.10;99.90
15355;DHT22;7777;52.254;9.618;2023-04-16T09:37:15;10.10;99.90
15355;DHT22;7777;52.254;9.618;2023-04-16T09:39:44;10.10;99.90
15355;DHT22;7777;52.254;9.618;2023-04-16T09:42:32;10.10;99.90
15355;DHT22;7777;52.254;9.618;2023-04-16T09:45:00;10.10;99.90
15355;DHT22;7777;52.254;9.618;2023-04-16T09:47:40;10.10;99.90
15355;DHT22;7777;52.254;9.618;2023-04-16T09:50:09;10.20;99.90
15355;DHT22;7777;52.254;9.618;2023-04-16T09:52:38;10.20;99.90
15355;DHT22;7777;52.254;9.618;2023-04-16T09:55:04;10.10;99.90
15355;DHT22;7777;52.254;9.618;2023-04-16T09:57:30;10.20;99.90
15355;DHT22;7777;52.254;9.618;2023-04-16T10:00:05;10.20;99.90
15355;DHT22;7777;52.254;9.618;2023-04-16T10:02:33;10.20;99.90
15355;DHT22;7777;52.254;9.618;2023-04-16T10:05:01;10.20;99.90
15355;DHT22;7777;52.254;9.618;2023-04-16T10:07:28;10.20;99.90
15355;DHT22;7777;52.254;9.618;2023-04-16T10:09:54;10.20;99.90
15355;DHT22;7777;52.254;9.618;2023-04-16T10:12:21;10.20;99.90
15355;DHT22;7777;52.254;9.618;2023-04-16T10:14:46;10.20;99.90
15355;DHT22;7777;52.254;9.618;2023-04-16T10:17:12;10.30;99.90
15355;DHT22;7777;52.254;9.618;2023-04-16T10:19:38;10.20;99.90
15355;DHT22;7777;52.254;9.618;2023-04-16T10:22:04;10.20;99.90
15355;DHT22;7777;52.254;9.618;2023-04-16T10:24:33;10.20;99.90
15355;DHT22;7777;52.254;9.618;2023-04-16T10:27:00;10.30;99.90
15355;DHT22;7777;52.254;9.618;2023-04-16T10:29:27;10.20;99.90
15355;DHT22;7777;52.254;9.618;2023-04-16T10:31:54;10.30;99.90
15355;DHT22;7777;52.254;9.618;2023-04-16T10:34:22;10.30;99.90
15355;DHT22;7777;52.254;9.618;2023-04-16T10:36:50;10.30;99.90
15355;DHT22;7777;52.254;9.618;2023-04-16T10:39:22;10.30;99.90
15355;DHT22;7777;52.254;9.618;2023-04-16T10:41:50;10.30;99.90
15355;DHT22;7777;52.254;9.618;2023-04-16T10:44:31;10.30;99.90
15355;DHT22;7777;52.254;9.618;2023-04-16T10:46:58;10.20;99.90
15355;DHT22;7777;52.254;9.618;2023-04-16T10:49:25;10.20;99.90
15355;DHT22;7777;52.254;9.618;2023-04-16T10:51:59;10.20;99.90
15355;DHT22;7777;52.254;9.618;2023-04-16T10:54:29;10.20;99.90
15355;DHT22;7777;52.254;9.618;2023-04-16T10:56:57;10.20;99.90
15355;DHT22;7777;52.254;9.618;2023-04-16T10:59:28;10.20;99.90
15355;DHT22;7777;52.254;9.618;2023-04-16T11:02:00;10.20;99.90
15355;DHT22;7777;52.254;9.618;2023-04-16T11:04:29;10.20;99.90
15355;DHT22;7777;52.254;9.618;2023-04-16T11:12:53;10.20;99.90
15355;DHT22;7777;52.254;9.618;2023-04-16T11:15:14;10.20;99.90
15355;DHT22;7777;52.254;9.618;2023-04-16T11:17:45;10.20;99.90
15355;DHT22;7777;52.254;9.618;2023-04-16T11:20:20;10.20;99.90
15355;DHT22;7777;52.254;9.618;2023-04-16T11:22:48;10.20;99.90
15355;DHT22;7777;52.254;9.618;2023-04-16T11:25:25;10.20;99.90
15355;DHT22;7777;52.254;9.618;2023-04-16T11:27:54;10.20;99.90
15355;DHT22;7777;52.254;9.618;2023-04-16T11:30:36;10.20;99.90
15355;DHT22;7777;52.254;9.618;2023-04-16T11:33:07;10.20;99.90
15355;DHT22;7777;52.254;9.618;2023-04-16T11:35:33;10.20;99.90
15355;DHT22;7777;52.254;9.618;2023-04-16T11:37:59;10.20;99.90
15355;DHT22;7777;52.254;9.618;2023-04-16T11:40:28;10.20;99.90
15355;DHT22;7777;52.254;9.618;2023-04-16T11:42:58;10.20;99.90
15355;DHT22;7777;52.254;9.618;2023-04-16T11:45:26;10.20;99.90
15355;DHT22;7777;52.254;9.618;2023-04-16T11:47:52;10.20;99.90
15355;DHT22;7777;52.254;9.618;2023-04-16T11:50:26;10.20;99.90
15355;DHT22;7777;52.254;9.618;2023-04-16T11:52:54;10.20;99.90
15355;DHT22;7777;52.254;9.618;2023-04-16T11:55:21;10.10;99.90
15355;DHT22;7777;52.254;9.618;2023-04-16T11:57:47;10.10;99.90
15355;DHT22;7777;52.254;9.618;2023-04-16T12:00:14;10.20;99.90
15355;DHT22;7777;52.254;9.618;2023-04-16T12:02:41;10.20;99.90
15355;DHT22;7777;52.254;9.618;2023-04-16T12:05:27;10.20;99.90
15355;DHT22;7777;52.254;9.618;2023-04-16T12:08:05;10.20;99.90
15355;DHT22;7777;52.254;9.618;2023-04-16T12:10:51;10.20;99.90
15355;DHT22;7777;52.254;9.618;2023-04-16T12:13:18;10.20;99.90
15355;DHT22;7777;52.254;9.618;2023-04-16T12:15:52;10.20;99.90
15355;DHT22;7777;52.254;9.618;2023-04-16T12:18:20;10.20;99.90
15355;DHT22;7777;52.254;9.618;2023-04-16T12:20:48;10.20;99.90
15355;DHT22;7777;52.254;9.618;2023-04-16T12:23:32;10.20;99.90
15355;DHT22;7777;52.254;9.618;2023-04-16T12:25:58;10.20;99.90
15355;DHT22;7777;52.254;9.618;2023-04-16T12:28:38;10.30;99.90
15355;DHT22;7777;52.254;9.618;2023-04-16T12:31:04;10.30;99.90
15355;DHT22;7777;52.254;9.618;2023-04-16T12:33:31;10.20;99.90
15355;DHT22;7777;52.254;9.618;2023-04-16T12:35:57;10.20;99.90
15355;DHT22;7777;52.254;9.618;2023-04-16T12:38:22;10.30;99.90
15355;DHT22;7777;52.254;9.618;2023-04-16T12:40:49;10.30;99.90
15355;DHT22;7777;52.254;9.618;2023-04-16T12:43:15;10.20;99.90
15355;DHT22;7777;52.254;9.618;2023-04-16T12:45:41;10.30;99.90
15355;DHT22;7777;52.254;9.618;2023-04-16T12:48:06;10.30;99.90
15355;DHT22;7777;52.254;9.618;2023-04-16T12:50:32;10.30;99.90
15355;DHT22;7777;52.254;9.618;2023-04-16T12:52:58;10.30;99.90
15355;DHT22;7777;52.254;9.618;2023-04-16T12:55:24;10.30;99.90
15355;DHT22;7777;52.254;9.618;2023-04-16T12:57:50;10.30;99.90
15355;DHT22;7777;52.254;9.618;2023-04-16T13:00:19;10.30;99.90
15355;DHT22;7777;52.254;9.618;2023-04-16T13:02:45;10.30;99.90
15355;DHT22;7777;52.254;9.618;2023-04-16T13:05:11;10.30;99.90
15355;DHT22;7777;52.254;9.618;2023-04-16T13:07:38;10.30;99.90
15355;DHT22;7777;52.254;9.618;2023-04-16T13:10:05;10.30;99.90
15355;DHT22;7777;52.254;9.618;2023-04-16T13:12:31;10.30;99.90
15355;DHT22;7777;52.254;9.618;2023-04-16T13:14:57;10.40;99.90
15355;DHT22;7777;52.254;9.618;2023-04-16T13:17:22;10.40;99.90
15355;DHT22;7777;52.254;9.618;2023-04-16T13:19:48;10.40;99.90
15355;DHT22;7777;52.254;9.618;2023-04-16T13:22:14;10.50;99.90
15355;DHT22;7777;52.254;9.618;2023-04-16T13:24:40;10.50;99.90
15355;DHT22;7777;52.254;9.618;2023-04-16T13:27:06;10.50;99.90
15355;DHT22;7777;52.254;9.618;2023-04-16T13:29:32;10.50;99.90
15355;DHT22;7777;52.254;9.618;2023-04-16T13:32:00;10.50;99.90
15355;DHT22;7777;52.254;9.618;2023-04-16T13:34:26;10.60;99.90
15355;DHT22;7777;52.254;9.618;2023-04-16T13:36:52;10.60;99.90
15355;DHT22;7777;52.254;9.618;2023-04-16T13:39:18;10.70;99.90
15355;DHT22;7777;52.254;9.618;2023-04-16T13:41:43;10.70;99.90
15355;DHT22;7777;52.254;9.618;2023-04-16T13:44:09;10.70;99.90
15355;DHT22;7777;52.254;9.618;2023-04-16T13:46:35;10.70;99.90
15355;DHT22;7777;52.254;9.618;2023-04-16T13:49:07;10.80;99.90
15355;DHT22;7777;52.254;9.618;2023-04-16T13:51:32;10.90;99.90
15355;DHT22;7777;52.254;9.618;2023-04-16T13:53:58;10.90;99.90
15355;DHT22;7777;52.254;9.618;2023-04-16T13:56:32;11.00;99.90
15355;DHT22;7777;52.254;9.618;2023-04-16T13:58:57;11.00;99.90
15355;DHT22;7777;52.254;9.618;2023-04-16T14:01:31;11.20;99.90
15355;DHT22;7777;52.254;9.618;2023-04-16T14:04:00;11.20;99.90
15355;DHT22;7777;52.254;9.618;2023-04-16T14:06:30;11.30;99.90
15355;DHT22;7777;52.254;9.618;2023-04-16T14:08:56;11.50;99.90
15355;DHT22;7777;52.254;9.618;2023-04-16T14:11:22;11.50;99.90
15355;DHT22;7777;52.254;9.618;2023-04-16T14:13:48;11.60;99.90
15355;DHT22;7777;52.254;9.618;2023-04-16T14:16:14;11.70;99.90
15355;DHT22;7777;52.254;9.618;2023-04-16T14:18:39;11.80;99.90
15355;DHT22;7777;52.254;9.618;2023-04-16T14:21:07;11.90;99.90
15355;DHT22;7777;52.254;9.618;2023-04-16T14:23:33;11.90;99.90
15355;DHT22;7777;52.254;9.618;2023-04-16T14:25:58;12.00;99.90
15355;DHT22;7777;52.254;9.618;2023-04-16T14:28:24;12.10;99.90
15355;DHT22;7777;52.254;9.618;2023-04-16T14:30:50;12.20;99.90
15355;DHT22;7777;52.254;9.618;2023-04-16T14:33:15;12.20;99.90
15355;DHT22;7777;52.254;9.618;2023-04-16T14:35:41;12.30;99.90
15355;DHT22;7777;52.254;9.618;2023-04-16T14:38:06;12.30;99.90
15355;DHT22;7777;52.254;9.618;2023-04-16T14:40:33;12.30;99.90
15355;DHT22;7777;52.254;9.618;2023-04-16T14:42:59;12.30;99.90
15355;DHT22;7777;52.254;9.618;2023-04-16T14:45:24;12.30;99.90
15355;DHT22;7777;52.254;9.618;2023-04-16T14:47:53;12.30;99.90
15355;DHT22;7777;52.254;9.618;2023-04-16T14:50:18;12.30;99.90
15355;DHT22;7777;52.254;9.618;2023-04-16T14:52:44;12.40;99.90
15355;DHT22;7777;52.254;9.618;2023-04-16T14:55:10;12.40;99.90
15355;DHT22;7777;52.254;9.618;2023-04-16T14:57:36;12.40;99.90
15355;DHT22;7777;52.254;9.618;2023-04-16T15:00:04;12.40;99.90
15355;DHT22;7777;52.254;9.618;2023-04-16T15:02:37;12.40;99.90
15355;DHT22;7777;52.254;9.618;2023-04-16T15:05:03;12.40;99.90
15355;DHT22;7777;52.254;9.618;2023-04-16T15:07:29;12.40;99.90
15355;DHT22;7777;52.254;9.618;2023-04-16T15:09:55;12.40;99.90
15355;DHT22;7777;52.254;9.618;2023-04-16T15:12:21;12.30;99.90
15355;DHT22;7777;52.254;9.618;2023-04-16T15:14:47;12.40;99.90
15355;DHT22;7777;52.254;9.618;2023-04-16T15:17:12;12.30;99.90
15355;DHT22;7777;52.254;9.618;2023-04-16T15:19:38;12.30;99.90
15355;DHT22;7777;52.254;9.618;2023-04-16T15:22:04;12.30;99.90
15355;DHT22;7777;52.254;9.618;2023-04-16T15:24:29;12.20;99.90
15355;DHT22;7777;52.254;9.618;2023-04-16T15:26:55;12.30;99.90
15355;DHT22;7777;52.254;9.618;2023-04-16T15:29:21;12.20;99.90
15355;DHT22;7777;52.254;9.618;2023-04-16T15:31:47;12.20;99.90
15355;DHT22;7777;52.254;9.618;2023-04-16T15:34:12;12.20;99.90
15355;DHT22;7777;52.254;9.618;2023-04-16T15:36:38;12.30;99.90
15355;DHT22;7777;52.254;9.618;2023-04-16T15:39:04;12.20;99.90
15355;DHT22;7777;52.254;9.618;2023-04-16T15:41:29;12.20;99.90
15355;DHT22;7777;52.254;9.618;2023-04-16T15:43:56;12.20;99.90
15355;DHT22;7777;52.254;9.618;2023-04-16T15:46:22;12.20;99.90
15355;DHT22;7777;52.254;9.618;2023-04-16T15:48:47;12.20;99.90
15355;DHT22;7777;52.254;9.618;2023-04-16T15:51:13;12.20;99.90
15355;DHT22;7777;52.254;9.618;2023-04-16T15:53:39;12.20;99.90
15355;DHT22;7777;52.254;9.618;2023-04-16T15:56:05;12.30;99.90
15355;DHT22;7777;52.254;9.618;2023-04-16T15:58:30;12.30;99.90